createdAt,value
2023-03-01T00:00:14.379Z,4.10
2023-03-01T00:02:46.387Z,4.10
2023-03-01T00:05:18.241Z,4.20
2023-03-01T00:07:54.667Z,4.10
2023-03-01T00:10:27.610Z,4.20
2023-03-01T00:12:59.426Z,4.20
2023-03-01T00:15:31.559Z,4.40
2023-03-01T00:18:03.524Z,4.30
2023-03-01T00:20:36.045Z,4.30
2023-03-01T00:23:07.853Z,4.30
2023-03-01T00:25:43.329Z,4.30
2023-03-01T00:28:15.958Z,4.30
2023-03-01T00:30:48.369Z,4.20
2023-03-01T00:33:20.256Z,4.10
2023-03-01T00:35:53.023Z,4.10
2023-03-01T00:38:24.967Z,4.10
2023-03-01T00:41:11.231Z,4.00
2023-03-01T00:43:44.264Z,3.90
2023-03-01T00:46:19.824Z,3.80
2023-03-01T00:48:52.031Z,3.80
2023-03-01T00:51:27.506Z,3.80
2023-03-01T00:54:02.810Z,3.80
2023-03-01T00:56:34.914Z,3.80
2023-03-01T00:59:07.001Z,3.80
2023-03-01T01:01:39.152Z,3.90
2023-03-01T01:04:13.571Z,3.80
2023-03-01T01:06:47.660Z,3.80
2023-03-01T01:09:19.729Z,3.80
2023-03-01T01:11:52.511Z,3.80
2023-03-01T01:14:24.721Z,3.80
2023-03-01T01:16:57.212Z,3.70
2023-03-01T01:19:29.195Z,3.80
2023-03-01T01:22:01.078Z,3.70
2023-03-01T01:24:33.023Z,3.60
2023-03-01T01:27:05.044Z,3.70
2023-03-01T01:29:37.687Z,3.70
2023-03-01T01:32:09.646Z,3.70
2023-03-01T01:34:41.583Z,3.60
2023-03-01T01:37:13.422Z,3.60
2023-03-01T01:39:45.327Z,3.50
2023-03-01T01:42:18.888Z,3.40
2023-03-01T01:45:26.988Z,3.40
2023-03-01T01:48:05.816Z,3.40
2023-03-01T01:50:41.608Z,3.40
2023-03-01T01:53:17.969Z,3.20
2023-03-01T01:55:55.339Z,3.20
2023-03-01T01:58:30.605Z,3.10
2023-03-01T02:01:03.832Z,3.00
2023-03-01T02:03:38.701Z,3.00
2023-03-01T02:06:34.555Z,2.90
2023-03-01T02:09:12.558Z,3.00
2023-03-01T02:11:45.722Z,3.10
2023-03-01T02:14:18.027Z,3.10
2023-03-01T02:16:50.079Z,3.10
2023-03-01T02:19:37.051Z,3.00
2023-03-01T02:22:33.406Z,3.00
2023-03-01T02:25:20.288Z,2.90
2023-03-01T02:28:16.625Z,2.90
2023-03-01T02:31:09.063Z,2.80
2023-03-01T02:33:44.090Z,2.80
2023-03-01T02:36:21.370Z,2.80
2023-03-01T02:38:57.727Z,2.80
2023-03-01T02:41:33.394Z,2.80
2023-03-01T02:44:06.746Z,2.80
2023-03-01T02:46:45.959Z,2.80
2023-03-01T02:49:28.979Z,2.80
2023-03-01T02:52:23.976Z,2.80
2023-03-01T02:55:07.936Z,2.70
2023-03-01T02:57:43.502Z,2.70
2023-03-01T03:00:27.241Z,2.70
2023-03-01T03:02:59.072Z,2.70
2023-03-01T03:05:32.349Z,2.70
2023-03-01T03:08:04.554Z,2.70
2023-03-01T03:10:42.012Z,2.70
2023-03-01T03:13:15.149Z,2.60
2023-03-01T03:15:48.904Z,2.60
2023-03-01T03:18:21.978Z,2.60
2023-03-01T03:20:55.130Z,2.60
2023-03-01T03:23:27.009Z,2.70
2023-03-01T03:25:58.950Z,2.70
2023-03-01T03:28:35.194Z,2.70
2023-03-01T03:31:09.054Z,2.70
2023-03-01T03:33:40.993Z,2.70
2023-03-01T03:36:24.363Z,2.80
2023-03-01T03:38:56.194Z,2.80
2023-03-01T03:41:27.999Z,2.80
2023-03-01T03:44:00.563Z,2.80
2023-03-01T03:46:32.767Z,2.80
2023-03-01T03:49:04.878Z,2.80
2023-03-01T03:51:36.871Z,2.80
2023-03-01T03:54:08.763Z,2.90
2023-03-01T03:56:41.047Z,2.80
2023-03-01T03:59:12.982Z,2.80
2023-03-01T04:01:46.212Z,2.80
2023-03-01T04:04:19.884Z,2.90
2023-03-01T04:06:51.681Z,2.80
2023-03-01T04:09:23.516Z,2.80
2023-03-01T04:11:55.617Z,2.80
2023-03-01T04:14:27.449Z,2.80
2023-03-01T04:16:59.283Z,2.90
2023-03-01T04:19:37.169Z,2.90
2023-03-01T04:22:10.334Z,2.80
2023-03-01T04:24:42.247Z,2.80
2023-03-01T04:27:14.098Z,2.90
2023-03-01T04:29:46.053Z,2.90
2023-03-01T04:32:18.817Z,2.90
2023-03-01T04:34:50.638Z,2.90
2023-03-01T04:37:22.500Z,3.00
2023-03-01T04:39:54.494Z,3.10
2023-03-01T04:42:26.380Z,3.20
2023-03-01T04:44:58.222Z,3.20
2023-03-01T04:47:30.238Z,3.20
2023-03-01T04:50:02.159Z,3.20
2023-03-01T04:52:34.101Z,3.20
2023-03-01T04:55:06.457Z,3.20
2023-03-01T04:57:38.747Z,3.20
2023-03-01T05:00:22.019Z,3.20
2023-03-01T05:03:01.910Z,3.20
2023-03-01T05:05:37.204Z,3.20
2023-03-01T05:08:09.662Z,3.30
2023-03-01T05:10:42.879Z,3.40
2023-03-01T05:13:21.726Z,3.40
2023-03-01T05:15:59.114Z,3.40
2023-03-01T05:18:33.183Z,3.40
2023-03-01T05:21:08.845Z,3.40
2023-03-01T05:23:41.280Z,3.40
2023-03-01T05:26:27.981Z,3.50
2023-03-01T05:29:01.093Z,3.60
2023-03-01T05:31:32.984Z,3.70
2023-03-01T05:34:05.716Z,3.70
2023-03-01T05:36:37.590Z,3.70
2023-03-01T05:39:09.545Z,3.60
2023-03-01T05:41:41.687Z,3.50
2023-03-01T05:44:13.577Z,3.50
2023-03-01T05:46:45.962Z,3.50
2023-03-01T05:49:18.458Z,3.50
2023-03-01T05:51:52.780Z,3.40
2023-03-01T05:54:24.588Z,3.30
2023-03-01T05:56:57.326Z,3.30
2023-03-01T05:59:29.213Z,3.40
2023-03-01T06:02:01.064Z,3.40
2023-03-01T06:04:32.895Z,3.40
2023-03-01T06:07:05.466Z,3.50
2023-03-01T06:09:37.400Z,3.60
2023-03-01T06:12:09.212Z,3.70
2023-03-01T06:14:41.020Z,3.90
2023-03-01T06:17:13.031Z,4.00
2023-03-01T06:19:45.013Z,4.00
2023-03-01T06:22:16.949Z,4.00
2023-03-01T06:24:48.904Z,3.90
2023-03-01T06:27:20.991Z,3.90
2023-03-01T06:29:52.863Z,3.80
2023-03-01T06:32:24.740Z,3.80
2023-03-01T06:34:56.793Z,3.80
2023-03-01T06:37:28.698Z,3.80
2023-03-01T06:40:00.634Z,3.90
2023-03-01T06:42:32.479Z,4.00
2023-03-01T06:45:06.074Z,4.10
2023-03-01T06:47:37.976Z,4.20
2023-03-01T06:50:10.611Z,4.40
2023-03-01T06:52:44.919Z,4.50
2023-03-01T06:55:16.756Z,4.60
2023-03-01T06:57:48.568Z,4.60
2023-03-01T07:00:21.244Z,4.70
2023-03-01T07:02:53.277Z,4.70
2023-03-01T07:05:25.223Z,4.80
2023-03-01T07:07:57.649Z,4.90
2023-03-01T07:10:29.609Z,4.90
2023-03-01T07:13:01.657Z,5.00
2023-03-01T07:15:34.081Z,5.10
2023-03-01T07:18:06.134Z,5.10
2023-03-01T07:20:38.052Z,5.20
2023-03-01T07:23:09.842Z,5.20
2023-03-01T07:25:41.717Z,5.40
2023-03-01T07:28:13.646Z,5.50
2023-03-01T07:30:45.865Z,5.50
2023-03-01T07:33:18.627Z,5.60
2023-03-01T07:36:00.593Z,5.70
2023-03-01T07:38:32.879Z,5.80
2023-03-01T07:41:06.644Z,5.90
2023-03-01T07:43:38.572Z,6.10
2023-03-01T07:46:10.962Z,6.20
2023-03-01T07:48:43.078Z,6.20
2023-03-01T07:51:15.066Z,6.40
2023-03-01T07:53:48.809Z,6.50
2023-03-01T07:56:22.716Z,6.60
2023-03-01T07:58:54.706Z,6.70
2023-03-01T08:01:26.740Z,6.80
2023-03-01T08:03:58.780Z,6.90
2023-03-01T08:06:30.911Z,7.20
2023-03-01T08:09:03.450Z,7.40
2023-03-01T08:11:35.329Z,7.50
2023-03-01T08:14:07.619Z,7.60
2023-03-01T08:16:39.778Z,7.70
2023-03-01T08:19:12.985Z,8.10
2023-03-01T08:21:44.955Z,8.40
2023-03-01T08:24:16.863Z,8.50
2023-03-01T08:26:48.981Z,8.80
2023-03-01T08:29:21.145Z,9.30
2023-03-01T08:31:53.147Z,9.50
2023-03-01T08:34:25.275Z,9.80
2023-03-01T08:36:57.289Z,10.00
2023-03-01T08:39:29.368Z,10.00
2023-03-01T08:42:01.254Z,9.90
2023-03-01T08:44:33.283Z,9.60
2023-03-01T08:47:05.976Z,9.40
2023-03-01T08:49:37.861Z,9.30
2023-03-01T08:52:15.023Z,9.10
2023-03-01T08:54:49.023Z,9.10
2023-03-01T08:57:21.364Z,9.10
2023-03-01T08:59:53.310Z,9.00
2023-03-01T09:02:25.215Z,8.80
2023-03-01T09:04:57.099Z,8.70
2023-03-01T09:07:31.644Z,8.70
2023-03-01T09:10:03.855Z,8.90
2023-03-01T09:12:35.713Z,8.80
2023-03-01T09:15:08.387Z,8.80
2023-03-01T09:17:40.392Z,9.10
2023-03-01T09:20:14.983Z,9.30
2023-03-01T09:22:47.353Z,9.40
2023-03-01T09:25:19.239Z,9.50
2023-03-01T09:27:55.414Z,9.60
2023-03-01T09:30:27.533Z,9.70
2023-03-01T09:32:59.474Z,9.50
2023-03-01T09:35:31.563Z,9.50
2023-03-01T09:38:03.896Z,9.50
2023-03-01T09:40:35.759Z,9.70
2023-03-01T09:43:21.920Z,9.80
2023-03-01T09:45:57.205Z,9.90
2023-03-01T09:48:46.278Z,9.80
2023-03-01T09:51:34.572Z,9.90
2023-03-01T09:54:09.376Z,10.00
2023-03-01T09:56:47.923Z,10.10
2023-03-01T09:59:35.055Z,10.20
2023-03-01T10:02:29.328Z,10.30
2023-03-01T10:05:39.554Z,10.30
2023-03-01T10:08:30.509Z,10.20
2023-03-01T10:11:03.625Z,10.30
2023-03-01T10:13:45.521Z,10.40
2023-03-01T10:16:28.544Z,10.40
2023-03-01T10:19:03.632Z,10.40
2023-03-01T10:21:44.155Z,10.40
2023-03-01T10:24:22.805Z,10.40
2023-03-01T10:27:03.939Z,10.50
2023-03-01T10:29:44.214Z,10.50
2023-03-01T10:32:17.205Z,10.60
2023-03-01T10:34:49.641Z,10.70
2023-03-01T10:37:24.240Z,10.70
2023-03-01T10:40:09.372Z,10.70
2023-03-01T10:42:50.349Z,10.80
2023-03-01T10:45:34.692Z,10.90
2023-03-01T10:48:10.177Z,11.00
2023-03-01T10:50:44.490Z,11.00
2023-03-01T10:53:26.053Z,11.00
2023-03-01T10:55:59.440Z,10.90
2023-03-01T10:58:32.480Z,10.90
2023-03-01T11:01:16.640Z,10.70
2023-03-01T11:04:04.410Z,10.60
2023-03-01T11:06:57.053Z,10.70
2023-03-01T11:09:39.491Z,10.90
2023-03-01T11:12:18.823Z,11.00
2023-03-01T11:14:59.286Z,10.80
2023-03-01T11:17:39.079Z,10.60
2023-03-01T11:20:38.872Z,10.30
2023-03-01T11:23:14.101Z,10.10
2023-03-01T11:25:57.876Z,10.10
2023-03-01T11:28:31.327Z,10.00
2023-03-01T11:31:15.311Z,10.10
2023-03-01T11:34:18.844Z,10.20
2023-03-01T11:36:59.717Z,10.20
2023-03-01T11:39:53.213Z,10.20
2023-03-01T11:42:49.576Z,10.00
2023-03-01T11:45:25.647Z,9.90
2023-03-01T11:48:08.620Z,9.90
2023-03-01T11:50:50.625Z,10.00
2023-03-01T11:53:54.244Z,10.00
2023-03-01T11:56:29.088Z,10.20
2023-03-01T11:59:01.541Z,10.20
2023-03-01T12:02:05.976Z,10.40
2023-03-01T12:05:16.090Z,10.40
2023-03-01T12:08:07.075Z,10.40
2023-03-01T12:11:03.385Z,10.40
2023-03-01T12:14:04.497Z,10.50
2023-03-01T12:16:58.268Z,10.40
2023-03-01T12:19:53.364Z,10.20
2023-03-01T12:22:32.489Z,10.10
2023-03-01T12:25:27.772Z,10.10
2023-03-01T12:28:31.273Z,10.10
2023-03-01T12:31:38.558Z,9.80
2023-03-01T12:34:18.603Z,9.50
2023-03-01T12:36:56.741Z,9.20
2023-03-01T12:39:46.149Z,9.00
2023-03-01T12:42:18.012Z,8.90
2023-03-01T12:44:58.752Z,8.90
2023-03-01T12:48:11.328Z,9.00
2023-03-01T12:51:06.599Z,8.90
2023-03-01T12:53:50.420Z,8.90
2023-03-01T12:56:39.186Z,9.00
2023-03-01T12:59:19.830Z,9.10
2023-03-01T13:01:59.040Z,9.20
2023-03-01T13:05:08.219Z,9.30
2023-03-01T13:07:44.589Z,9.50
2023-03-01T13:11:12.368Z,9.70
2023-03-01T13:13:48.016Z,9.60
2023-03-01T13:16:55.293Z,9.60
2023-03-01T13:19:33.564Z,9.60
2023-03-01T13:22:32.777Z,9.60
2023-03-01T13:25:19.161Z,9.70
2023-03-01T13:27:51.493Z,9.70
2023-03-01T13:30:36.032Z,9.80
2023-03-01T13:33:28.348Z,9.90
2023-03-01T13:36:01.481Z,10.00
2023-03-01T13:38:55.062Z,10.10
2023-03-01T13:41:49.661Z,10.10
2023-03-01T13:44:27.765Z,10.10
2023-03-01T13:47:18.446Z,10.10
2023-03-01T13:50:02.009Z,10.30
2023-03-01T13:52:52.190Z,10.20
2023-03-01T13:55:46.499Z,10.20
2023-03-01T13:58:28.029Z,10.10
2023-03-01T14:01:02.156Z,10.10
2023-03-01T14:03:42.706Z,9.90
2023-03-01T14:06:21.217Z,9.80
2023-03-01T14:09:34.437Z,9.80
2023-03-01T14:12:35.514Z,9.70
2023-03-01T14:15:26.021Z,9.50
2023-03-01T14:18:26.644Z,9.40
2023-03-01T14:21:00.801Z,9.50
2023-03-01T14:23:35.546Z,9.40
2023-03-01T14:26:10.525Z,9.30
2023-03-01T14:28:43.900Z,9.10
2023-03-01T14:31:52.104Z,9.10
2023-03-01T14:34:25.735Z,9.10
2023-03-01T14:36:58.628Z,9.00
2023-03-01T14:39:33.157Z,8.80
2023-03-01T14:42:15.531Z,8.70
2023-03-01T14:44:50.727Z,8.40
2023-03-01T14:47:34.824Z,8.20
2023-03-01T14:50:17.101Z,8.00
2023-03-01T14:52:53.107Z,8.00
2023-03-01T14:55:33.047Z,7.90
2023-03-01T14:58:06.965Z,7.90
2023-03-01T15:00:40.676Z,7.90
2023-03-01T15:03:20.180Z,8.00
2023-03-01T15:05:53.358Z,8.00
2023-03-01T15:11:33.164Z,8.10
2023-03-01T15:14:28.272Z,8.20
2023-03-01T15:17:00.542Z,8.30
2023-03-01T15:19:32.700Z,8.40
2023-03-01T15:22:13.178Z,8.40
2023-03-01T15:24:51.803Z,8.40
2023-03-01T15:27:26.135Z,8.30
2023-03-01T15:30:04.715Z,8.30
2023-03-01T15:32:43.257Z,8.30
2023-03-01T15:38:59.146Z,8.40
2023-03-01T15:41:53.130Z,8.40
2023-03-01T15:44:42.747Z,8.50
2023-03-01T15:47:40.066Z,8.50
2023-03-01T15:50:45.168Z,8.50
2023-03-01T15:53:43.900Z,8.60
2023-03-01T15:56:25.510Z,8.60
2023-03-01T15:59:02.329Z,8.60
2023-03-01T16:01:35.808Z,8.30
2023-03-01T16:04:08.085Z,8.20
2023-03-01T16:06:40.286Z,8.00
2023-03-01T16:09:13.521Z,7.80
2023-03-01T16:11:45.792Z,7.80
2023-03-01T16:14:17.945Z,7.90
2023-03-01T16:16:50.357Z,7.90
2023-03-01T16:19:22.219Z,7.90
2023-03-01T16:21:54.123Z,7.70
2023-03-01T16:24:27.091Z,7.60
2023-03-01T16:26:58.984Z,7.50
2023-03-01T16:29:30.938Z,7.40
2023-03-01T16:32:03.628Z,7.20
2023-03-01T16:34:35.794Z,7.10
2023-03-01T16:37:07.603Z,7.00
2023-03-01T16:39:39.932Z,7.00
2023-03-01T16:42:14.101Z,7.00
2023-03-01T16:44:47.252Z,7.00
2023-03-01T16:47:19.241Z,7.00
2023-03-01T16:49:54.944Z,7.00
2023-03-01T16:52:27.221Z,7.10
2023-03-01T16:55:01.622Z,7.10
2023-03-01T16:57:35.531Z,7.20
2023-03-01T17:00:10.667Z,7.00
2023-03-01T17:02:43.304Z,7.10
2023-03-01T17:05:15.291Z,7.00
2023-03-01T17:07:47.554Z,7.00
2023-03-01T17:10:19.621Z,7.00
2023-03-01T17:12:51.696Z,7.10
2023-03-01T17:15:23.599Z,7.10
2023-03-01T17:17:55.638Z,7.20
2023-03-01T17:20:27.706Z,7.10
2023-03-01T17:22:59.690Z,7.20
2023-03-01T17:25:31.672Z,7.20
2023-03-01T17:28:03.607Z,7.20
2023-03-01T17:30:35.709Z,7.30
2023-03-01T17:33:07.678Z,7.30
2023-03-01T17:35:39.934Z,7.20
2023-03-01T17:38:11.878Z,7.20
2023-03-01T17:40:47.946Z,7.10
2023-03-01T17:43:20.347Z,7.00
2023-03-01T17:45:52.652Z,6.80
2023-03-01T17:48:25.813Z,6.70
2023-03-01T17:50:57.931Z,6.50
2023-03-01T17:53:30.055Z,6.50
2023-03-01T17:56:05.333Z,6.40
2023-03-01T17:58:39.269Z,6.40
2023-03-01T18:01:19.889Z,6.30
2023-03-01T18:03:53.510Z,6.30
2023-03-01T18:06:27.422Z,6.40
2023-03-01T18:08:59.389Z,6.40
2023-03-01T18:11:34.645Z,6.50
2023-03-01T18:14:06.503Z,6.50
2023-03-01T18:16:39.790Z,6.50
2023-03-01T18:19:12.894Z,6.50
2023-03-01T18:21:44.742Z,6.50
2023-03-01T18:24:16.624Z,6.50
2023-03-01T18:26:48.738Z,6.50
2023-03-01T18:29:20.714Z,6.50
2023-03-01T18:31:52.667Z,6.50
2023-03-01T18:34:25.016Z,6.60
2023-03-01T18:37:08.843Z,6.60
2023-03-01T18:39:41.839Z,6.60
2023-03-01T18:42:16.372Z,6.60
2023-03-01T18:44:48.900Z,6.60
2023-03-01T18:47:21.224Z,6.60
2023-03-01T18:49:54.305Z,6.50
2023-03-01T18:52:26.210Z,6.60
2023-03-01T18:54:58.442Z,6.60
2023-03-01T18:57:30.380Z,6.60
2023-03-01T19:00:04.238Z,6.60
2023-03-01T19:02:36.397Z,6.60
2023-03-01T19:05:08.894Z,6.60
2023-03-01T19:07:40.816Z,6.70
2023-03-01T19:10:13.023Z,6.70
2023-03-01T19:12:46.073Z,6.60
2023-03-01T19:15:18.085Z,6.60
2023-03-01T19:17:50.108Z,6.60
2023-03-01T19:20:21.945Z,6.70
2023-03-01T19:22:53.858Z,6.70
2023-03-01T19:25:25.809Z,6.80
2023-03-01T19:27:57.776Z,6.70
2023-03-01T19:30:29.769Z,6.80
2023-03-01T19:33:01.713Z,6.80
2023-03-01T19:35:35.064Z,6.90
2023-03-01T19:38:07.047Z,6.90
2023-03-01T19:40:39.112Z,6.90
2023-03-01T19:43:12.926Z,6.90
2023-03-01T19:45:46.319Z,7.00
2023-03-01T19:48:18.218Z,7.00
2023-03-01T19:51:09.140Z,7.00
2023-03-01T19:53:42.006Z,7.10
2023-03-01T19:56:14.682Z,7.10
2023-03-01T19:58:50.368Z,7.10
2023-03-01T20:01:22.442Z,7.20
2023-03-01T20:03:57.049Z,7.20
2023-03-01T20:06:33.003Z,7.10
2023-03-01T20:09:20.424Z,7.20
2023-03-01T20:11:53.498Z,7.20
2023-03-01T20:14:25.407Z,7.10
2023-03-01T20:16:58.506Z,7.10
2023-03-01T20:19:30.804Z,7.00
2023-03-01T20:22:03.596Z,7.10
2023-03-01T20:24:35.628Z,7.20
2023-03-01T20:27:09.184Z,7.20
2023-03-01T20:29:41.770Z,7.30
2023-03-01T20:32:14.098Z,7.30
2023-03-01T20:34:46.160Z,7.30
2023-03-01T20:37:18.986Z,7.30
2023-03-01T20:39:52.299Z,7.30
2023-03-01T20:42:25.539Z,7.30
2023-03-01T20:44:57.679Z,7.30
2023-03-01T20:47:31.689Z,7.30
2023-03-01T20:50:05.307Z,7.30
2023-03-01T20:52:47.054Z,7.40
2023-03-01T20:55:19.824Z,7.40
2023-03-01T20:57:51.722Z,7.40
2023-03-01T21:00:23.846Z,7.40
2023-03-01T21:02:58.050Z,7.40
2023-03-01T21:05:31.662Z,7.40
2023-03-01T21:08:04.266Z,7.40
2023-03-01T21:10:38.068Z,7.40
2023-03-01T21:13:11.510Z,7.40
2023-03-01T21:15:51.550Z,7.40
2023-03-01T21:18:23.833Z,7.50
2023-03-01T21:21:01.482Z,7.50
2023-03-01T21:23:35.238Z,7.40
2023-03-01T21:26:19.998Z,7.40
2023-03-01T21:28:56.300Z,7.40
2023-03-01T21:31:35.139Z,7.50
2023-03-01T21:34:07.466Z,7.50
2023-03-01T21:36:40.582Z,7.60
2023-03-01T21:39:12.942Z,7.60
2023-03-01T21:41:47.342Z,7.50
2023-03-01T21:44:19.319Z,7.50
2023-03-01T21:46:51.357Z,7.60
2023-03-01T21:49:23.217Z,7.60
2023-03-01T21:51:55.426Z,7.60
2023-03-01T21:54:27.580Z,7.70
2023-03-01T21:56:59.678Z,7.70
2023-03-01T21:59:31.728Z,7.70
2023-03-01T22:02:03.610Z,7.70
2023-03-01T22:04:35.526Z,7.80
2023-03-01T22:07:08.027Z,7.80
2023-03-01T22:09:39.878Z,7.70
2023-03-01T22:12:11.710Z,7.70
2023-03-01T22:14:43.918Z,7.70
2023-03-01T22:17:15.903Z,7.70
2023-03-01T22:19:47.788Z,7.70
2023-03-01T22:22:28.626Z,7.70
2023-03-01T22:25:00.605Z,7.80
2023-03-01T22:27:34.138Z,7.80
2023-03-01T22:30:08.737Z,7.90
2023-03-01T22:32:40.780Z,7.80
2023-03-01T22:35:13.291Z,7.80
2023-03-01T22:37:46.810Z,7.80
2023-03-01T22:40:19.707Z,7.90
2023-03-01T22:42:51.794Z,7.80
2023-03-01T22:45:23.698Z,7.90
2023-03-01T22:48:00.218Z,7.90
2023-03-01T22:50:32.156Z,7.90
2023-03-01T22:53:04.079Z,8.10
2023-03-01T22:55:36.013Z,8.10
2023-03-01T22:58:08.223Z,8.10
2023-03-01T23:00:44.475Z,8.20
2023-03-01T23:03:18.195Z,8.20
2023-03-01T23:05:52.245Z,8.20
2023-03-01T23:08:24.103Z,8.30
2023-03-01T23:10:56.014Z,8.30
2023-03-01T23:13:28.338Z,8.30
2023-03-01T23:16:00.226Z,8.30
2023-03-01T23:18:35.849Z,8.30
2023-03-01T23:21:12.069Z,8.30
2023-03-01T23:23:46.479Z,8.30
2023-03-01T23:26:18.957Z,8.30
2023-03-01T23:28:50.910Z,8.30
2023-03-01T23:31:23.183Z,8.30
2023-03-01T23:33:55.105Z,8.30
2023-03-01T23:36:30.479Z,8.20
2023-03-01T23:39:06.046Z,8.20
2023-03-01T23:41:38.143Z,8.30
2023-03-01T23:44:17.281Z,8.20
2023-03-01T23:46:50.133Z,8.10
2023-03-01T23:49:23.329Z,8.10
2023-03-01T23:51:58.655Z,8.10
2023-03-01T23:54:31.499Z,8.10
2023-03-01T23:57:03.440Z,8.10
2023-03-01T23:59:35.485Z,8.10
